Time;durP1;ratioP1;P1;durP2;ratioP2;P2;SDS_P1;SDS_P2;PMS_P1;PMS_P2;Temp;Humidity;BMP_temperature;BMP_pressure;BME280_temperature;BME280_humidity;BME280_pressure;Samples;Min_cycle;Max_cycle;Signal;HPM_P1;HPM_P2
2022/11/12 00:00:19;;;;;;;22.43;11.60;;;11.90;63.90;;;;;;5056887;28;20517;-87
2022/11/12 00:03:06;;;;;;;25.53;11.37;;;11.80;63.80;;;;;;5065653;28;20913;-87
2022/11/12 00:05:52;;;;;;;19.47;11.30;;;11.80;64.00;;;;;;5065087;28;20439;-87
2022/11/12 00:08:37;;;;;;;23.33;10.63;;;11.80;63.90;;;;;;5071731;28;20430;-89
2022/11/12 00:11:23;;;;;;;21.70;10.10;;;11.50;64.50;;;;;;5087516;28;20950;-87
2022/11/12 00:14:09;;;;;;;38.30;11.30;;;11.80;64.30;;;;;;5080981;28;20804;-88
2022/11/12 00:16:55;;;;;;;20.57;9.90;;;11.90;63.40;;;;;;5073825;28;20793;-88
2022/11/12 00:19:42;;;;;;;21.33;9.50;;;11.90;63.40;;;;;;5080575;28;21093;-88
2022/11/12 00:22:28;;;;;;;32.50;10.50;;;11.80;63.90;;;;;;5079257;28;20855;-87
2022/11/12 00:25:13;;;;;;;20.57;10.83;;;11.80;63.70;;;;;;5077831;28;20442;-89
2022/11/12 00:28:04;;;;;;;14.87;9.10;;;11.70;63.80;;;;;;5063495;28;20475;-87
2022/11/12 00:30:49;;;;;;;28.37;9.17;;;11.70;64.20;;;;;;5074545;28;20965;-88
2022/11/12 00:33:38;;;;;;;16.00;9.03;;;11.50;64.00;;;;;;5078569;28;20454;-87
2022/11/12 00:36:25;;;;;;;20.50;11.17;;;11.60;64.50;;;;;;5073783;28;21465;-88
2022/11/12 00:39:11;;;;;;;18.23;12.03;;;11.70;63.70;;;;;;5075703;28;20440;-89
2022/11/12 00:41:57;;;;;;;18.77;10.43;;;11.50;64.50;;;;;;5072543;28;20493;-93
2022/11/12 00:44:42;;;;;;;17.60;11.10;;;11.50;65.00;;;;;;5062981;28;20432;-87
2022/11/12 00:47:28;;;;;;;31.90;15.30;;;11.70;64.70;;;;;;5062448;28;20469;-90
2022/11/12 00:50:15;;;;;;;27.20;12.97;;;11.70;64.10;;;;;;5063992;28;20447;-89
2022/11/12 00:53:02;;;;;;;22.33;10.57;;;11.60;64.40;;;;;;5094845;28;20472;-91
2022/11/12 00:55:47;;;;;;;22.13;11.93;;;11.50;64.90;;;;;;5095509;28;21024;-91
2022/11/12 00:58:35;;;;;;;46.17;10.60;;;11.60;64.60;;;;;;5058017;28;20475;-88
2022/11/12 01:01:21;;;;;;;20.93;11.03;;;11.50;64.50;;;;;;5095850;28;20474;-92
2022/11/12 01:04:08;;;;;;;18.03;9.17;;;11.60;65.00;;;;;;5095249;28;20469;-87
2022/11/12 01:06:53;;;;;;;15.37;8.77;;;11.80;64.50;;;;;;5073910;28;20446;-92
2022/11/12 01:09:40;;;;;;;23.87;9.40;;;11.80;64.40;;;;;;5098124;28;20444;-87
2022/11/12 01:12:26;;;;;;;21.90;9.33;;;11.90;64.20;;;;;;5097939;28;20508;-91
2022/11/12 01:15:11;;;;;;;17.00;8.00;;;11.70;64.40;;;;;;5099591;28;20595;-88
2022/11/12 01:17:57;;;;;;;19.17;9.30;;;11.80;64.60;;;;;;5082089;28;20451;-88
2022/11/12 01:20:42;;;;;;;16.17;8.93;;;12.00;64.10;;;;;;5079624;28;20451;-88
2022/11/12 01:23:28;;;;;;;18.07;9.00;;;12.00;63.70;;;;;;5080306;28;20455;-89
2022/11/12 01:26:18;;;;;;;19.60;10.33;;;12.00;64.00;;;;;;5081446;28;20978;-91
2022/11/12 01:29:04;;;;;;;28.10;10.43;;;11.80;64.40;;;;;;5080864;28;20938;-88
2022/11/12 01:31:50;;;;;;;24.60;9.50;;;11.90;64.50;;;;;;5079974;28;20824;-87
2022/11/12 01:34:36;;;;;;;26.00;10.07;;;12.10;64.10;;;;;;5076824;28;20465;-89
2022/11/12 01:37:22;;;;;;;37.23;12.43;;;11.90;64.10;;;;;;5079100;28;20995;-92
2022/11/12 01:40:09;;;;;;;76.57;12.97;;;11.90;64.10;;;;;;5078675;28;20806;-93
2022/11/12 01:42:56;;;;;;;22.30;10.10;;;11.90;64.10;;;;;;5066036;28;20561;-88
2022/11/12 01:45:45;;;;;;;14.57;8.80;;;12.10;63.50;;;;;;5061355;28;20434;-88
2022/11/12 01:48:34;;;;;;;16.00;9.87;;;12.20;63.10;;;;;;5075064;28;20891;-93
2022/11/12 01:51:23;;;;;;;26.03;9.83;;;11.70;64.60;;;;;;5081450;28;21036;-90
2022/11/12 01:54:12;;;;;;;19.83;9.60;;;11.80;64.80;;;;;;5094403;28;21009;-88
2022/11/12 01:56:59;;;;;;;20.37;10.47;;;12.00;64.30;;;;;;5058216;28;20549;-89
2022/11/12 01:59:49;;;;;;;31.70;9.67;;;12.20;63.70;;;;;;5074973;28;20534;-87
2022/11/12 02:02:36;;;;;;;21.77;10.23;;;12.30;63.40;;;;;;5079669;28;20470;-88
2022/11/12 02:05:24;;;;;;;21.53;8.93;;;12.30;63.00;;;;;;5076934;28;20445;-90
2022/11/12 02:08:12;;;;;;;28.60;9.80;;;12.30;63.30;;;;;;5067643;28;20435;-88
2022/11/12 02:10:58;;;;;;;17.40;10.13;;;12.00;63.50;;;;;;5084643;28;20511;-88
2022/11/12 02:13:57;;;;;;;19.80;9.23;;;11.70;64.80;;;;;;5066815;28;20695;-90
2022/11/12 02:16:46;;;;;;;26.13;10.10;;;11.90;64.80;;;;;;5050907;28;20461;-88
2022/11/12 02:19:31;;;;;;;21.33;9.30;;;11.90;64.20;;;;;;5073231;28;20593;-85
2022/11/12 02:22:19;;;;;;;18.53;9.80;;;11.80;64.40;;;;;;5080891;28;20532;-88
2022/11/12 02:25:05;;;;;;;20.73;9.23;;;11.80;64.90;;;;;;5077017;28;20448;-91
2022/11/12 02:27:54;;;;;;;19.67;9.20;;;12.00;64.60;;;;;;5062560;28;20541;-89
2022/11/12 02:30:42;;;;;;;21.60;9.20;;;11.70;64.60;;;;;;5074511;28;20432;-88
2022/11/12 02:33:28;;;;;;;26.70;8.90;;;11.80;65.30;;;;;;5077360;28;20462;-87
2022/11/12 02:36:14;;;;;;;26.70;10.40;;;11.90;64.50;;;;;;5069090;28;20854;-88
2022/11/12 02:39:01;;;;;;;16.90;9.70;;;11.50;65.20;;;;;;5082891;28;20846;-90
2022/11/12 02:41:46;;;;;;;16.70;8.67;;;11.50;65.80;;;;;;5082891;28;20486;-89
2022/11/12 02:44:33;;;;;;;26.00;9.67;;;11.70;65.50;;;;;;5072276;28;20446;-88
2022/11/12 02:47:18;;;;;;;11.83;8.17;;;11.90;64.70;;;;;;5065032;28;20431;-88
2022/11/12 02:50:05;;;;;;;18.43;8.13;;;11.70;64.50;;;;;;5083500;28;20501;-88
2022/11/12 02:52:50;;;;;;;14.07;8.97;;;11.60;65.00;;;;;;5083302;28;20497;-89
2022/11/12 02:55:37;;;;;;;11.10;7.53;;;11.60;65.00;;;;;;5099870;28;20484;-88
2022/11/12 02:58:23;;;;;;;12.50;7.33;;;11.60;64.90;;;;;;5079420;28;20443;-91
2022/11/12 03:01:08;;;;;;;10.47;6.87;;;11.60;65.30;;;;;;5080803;28;20491;-89
2022/11/12 03:03:54;;;;;;;8.37;6.33;;;11.50;64.60;;;;;;5077952;28;20882;-88
2022/11/12 03:06:41;;;;;;;11.70;6.77;;;11.50;65.10;;;;;;5072874;28;20568;-88
2022/11/12 03:09:26;;;;;;;9.50;6.63;;;11.20;65.00;;;;;;5096876;28;20484;-89
2022/11/12 03:12:13;;;;;;;14.73;7.63;;;11.20;65.30;;;;;;5069564;28;20438;-90
2022/11/12 03:14:59;;;;;;;9.00;6.60;;;11.30;64.90;;;;;;5058499;28;20435;-91
2022/11/12 03:17:45;;;;;;;11.73;7.47;;;11.20;64.70;;;;;;5053938;28;20438;-88
2022/11/12 03:20:33;;;;;;;9.90;7.10;;;11.30;64.20;;;;;;5065398;28;20440;-88
2022/11/12 03:23:19;;;;;;;13.53;7.17;;;11.40;63.90;;;;;;5079199;28;20475;-87
2022/11/12 03:26:05;;;;;;;9.13;6.17;;;11.10;64.30;;;;;;5063381;28;20444;-88
2022/11/12 03:28:52;;;;;;;10.50;6.60;;;11.00;64.60;;;;;;5098450;28;20443;-91
2022/11/12 03:31:39;;;;;;;11.67;5.80;;;11.10;64.40;;;;;;5077385;28;20440;-88
2022/11/12 03:34:24;;;;;;;11.13;6.80;;;11.30;63.80;;;;;;5081758;28;20458;-89
2022/11/12 03:37:10;;;;;;;8.83;6.60;;;11.40;63.20;;;;;;5097325;28;20529;-90
2022/11/12 03:39:56;;;;;;;7.80;5.60;;;11.30;63.60;;;;;;5100480;28;20446;-89
2022/11/12 03:42:46;;;;;;;9.73;6.07;;;11.40;63.50;;;;;;5099106;28;20473;-89
2022/11/12 03:45:33;;;;;;;9.57;5.93;;;11.50;63.60;;;;;;5098289;28;20533;-87
2022/11/12 03:48:18;;;;;;;8.97;6.73;;;11.50;62.60;;;;;;5096139;28;20593;-87
2022/11/12 03:51:04;;;;;;;9.13;6.80;;;11.70;62.00;;;;;;5098558;28;20443;-87
2022/11/12 03:53:50;;;;;;;10.90;6.27;;;11.70;61.80;;;;;;5086080;28;21099;-90
2022/11/12 03:56:35;;;;;;;15.30;7.43;;;11.80;61.70;;;;;;5083002;28;20468;-91
2022/11/12 03:59:21;;;;;;;11.80;7.03;;;11.30;62.70;;;;;;5082214;28;20451;-93
2022/11/12 04:02:13;;;;;;;12.10;7.13;;;11.30;63.40;;;;;;5096510;28;20447;-91
2022/11/12 04:11:11;;;;;;;9.87;7.47;;;11.40;63.40;;;;;;5097010;28;20475;-88
2022/11/12 04:13:56;;;;;;;10.90;8.00;;;11.50;62.90;;;;;;5086006;28;20553;-88
2022/11/12 04:22:50;;;;;;;7.57;6.80;;;11.50;63.00;;;;;;5084953;28;20454;-89
2022/11/12 04:28:38;;;;;;;9.63;6.77;;;11.80;62.40;;;;;;5100290;28;20462;-92
2022/11/12 04:31:23;;;;;;;10.77;6.90;;;11.90;62.00;;;;;;5083413;28;20443;-88
2022/11/12 04:37:10;;;;;;;10.53;7.37;;;12.00;61.30;;;;;;5086952;28;20541;-88
2022/11/12 04:44:58;;;;;;;10.40;6.97;;;11.90;61.30;;;;;;5099755;28;20531;-89
2022/11/12 04:46:07;;;;;;;10.40;6.17;;;11.80;61.70;;;;;;5100601;28;20474;-89
2022/11/12 04:48:53;;;;;;;7.73;6.13;;;11.70;62.20;;;;;;5094001;28;20474;-86
2022/11/12 04:54:44;;;;;;;9.80;6.17;;;11.50;62.40;;;;;;5085004;28;20439;-89
2022/11/12 04:57:29;;;;;;;8.37;6.03;;;11.40;62.40;;;;;;5099239;28;20566;-91
2022/11/12 05:00:15;;;;;;;10.03;6.70;;;11.30;62.70;;;;;;5097529;27;21331;-88
2022/11/12 05:03:01;;;;;;;13.70;8.10;;;11.30;62.80;;;;;;5100619;28;20459;-91
2022/11/12 05:05:46;;;;;;;12.50;7.30;;;11.20;62.90;;;;;;5098059;28;20476;-88
2022/11/12 05:08:32;;;;;;;9.13;6.60;;;11.00;62.80;;;;;;5087073;28;20434;-89
2022/11/12 05:11:19;;;;;;;9.07;5.97;;;11.10;63.60;;;;;;5097688;28;20453;-87
2022/11/12 05:14:05;;;;;;;8.97;5.73;;;11.30;62.90;;;;;;5084625;28;20476;-88
2022/11/12 05:16:51;;;;;;;8.53;6.10;;;11.20;62.60;;;;;;5098951;28;21173;-88
2022/11/12 05:19:36;;;;;;;9.37;6.43;;;11.40;62.70;;;;;;5103229;28;20458;-87
2022/11/12 05:22:22;;;;;;;10.07;6.70;;;11.60;62.40;;;;;;5074270;28;20450;-88
2022/11/12 05:25:09;;;;;;;9.80;6.03;;;11.60;62.10;;;;;;5087819;28;20435;-89
2022/11/12 05:27:56;;;;;;;10.63;6.90;;;11.30;62.30;;;;;;5097873;28;20431;-88
2022/11/12 05:30:41;;;;;;;12.13;6.57;;;11.30;63.00;;;;;;5096915;28;20508;-89
2022/11/12 05:33:27;;;;;;;8.17;6.80;;;11.10;63.20;;;;;;5080162;28;20529;-89
2022/11/12 05:36:13;;;;;;;8.80;6.40;;;11.30;63.80;;;;;;5092906;28;20463;-88
2022/11/12 05:38:59;;;;;;;10.37;6.40;;;11.40;63.20;;;;;;5077461;28;20792;-89
2022/11/12 05:41:44;;;;;;;9.53;6.20;;;11.40;62.10;;;;;;5102724;28;20443;-88
2022/11/12 05:44:31;;;;;;;8.47;6.50;;;10.90;62.30;;;;;;5084233;28;20466;-88
2022/11/12 05:47:17;;;;;;;9.33;7.00;;;11.00;62.90;;;;;;5094760;28;20434;-88
2022/11/12 05:50:02;;;;;;;9.70;6.50;;;11.10;62.50;;;;;;5083884;28;20442;-87
2022/11/12 05:52:48;;;;;;;9.20;6.20;;;11.10;62.80;;;;;;5096044;28;20514;-89
2022/11/12 05:55:33;;;;;;;9.93;7.07;;;11.00;62.90;;;;;;5084961;28;20462;-87
2022/11/12 05:58:19;;;;;;;9.47;7.37;;;11.00;63.20;;;;;;5100530;28;20440;-91
2022/11/12 06:01:06;;;;;;;8.50;6.97;;;11.10;63.10;;;;;;5094323;28;20783;-88
2022/11/12 06:03:52;;;;;;;10.33;6.77;;;11.30;62.90;;;;;;5076022;28;20478;-90
2022/11/12 06:06:38;;;;;;;13.87;7.80;;;11.50;62.50;;;;;;5096199;28;20545;-89
2022/11/12 06:09:24;;;;;;;11.07;6.90;;;11.40;61.90;;;;;;5103995;28;20481;-89
2022/11/12 06:12:09;;;;;;;12.50;7.33;;;11.30;62.70;;;;;;5105676;28;20486;-87
2022/11/12 06:14:55;;;;;;;9.23;6.97;;;10.90;63.40;;;;;;5088828;28;20980;-88
2022/11/12 06:17:42;;;;;;;9.03;7.17;;;11.00;64.10;;;;;;5086714;28;20505;-89
2022/11/12 06:20:28;;;;;;;8.03;6.20;;;10.90;63.50;;;;;;5104821;28;20451;-88
2022/11/12 06:23:13;;;;;;;9.30;6.60;;;10.70;64.50;;;;;;5091648;28;20461;-88
2022/11/12 06:25:59;;;;;;;9.20;6.80;;;10.90;64.40;;;;;;5091356;28;20439;-90
2022/11/12 06:28:45;;;;;;;10.30;7.20;;;11.20;63.80;;;;;;5102736;28;21107;-90
2022/11/12 06:31:31;;;;;;;9.50;6.90;;;11.30;62.80;;;;;;5083163;28;20445;-89
2022/11/12 06:34:18;;;;;;;9.23;6.30;;;11.30;62.80;;;;;;5105118;28;20829;-87
2022/11/12 06:37:04;;;;;;;9.67;7.70;;;11.10;63.00;;;;;;5105593;28;20462;-88
2022/11/12 06:39:50;;;;;;;10.60;7.10;;;11.30;62.90;;;;;;5090225;28;20555;-88
2022/11/12 06:42:36;;;;;;;7.93;6.23;;;11.30;62.80;;;;;;5104267;28;20458;-89
2022/11/12 06:45:21;;;;;;;9.80;6.77;;;11.40;62.60;;;;;;5087963;28;20806;-90
2022/11/12 06:48:07;;;;;;;9.20;7.30;;;11.30;62.30;;;;;;5111030;28;20434;-87
2022/11/12 06:50:54;;;;;;;18.77;12.67;;;11.00;63.20;;;;;;5103976;28;20519;-88
2022/11/12 06:53:39;;;;;;;15.30;10.67;;;11.10;63.20;;;;;;5078872;28;20479;-88
2022/11/12 06:56:25;;;;;;;11.13;8.17;;;10.80;63.40;;;;;;5075577;28;20455;-87
2022/11/12 06:59:12;;;;;;;13.90;8.50;;;10.90;63.90;;;;;;5075349;28;20799;-89
2022/11/12 07:01:57;;;;;;;16.80;11.40;;;11.10;63.40;;;;;;5086365;28;21057;-87
2022/11/12 07:04:43;;;;;;;11.40;7.43;;;10.90;63.00;;;;;;5086299;28;20531;-93
2022/11/12 07:07:30;;;;;;;9.07;6.97;;;10.40;64.30;;;;;;5084824;28;20450;-88
2022/11/12 07:10:16;;;;;;;9.73;7.70;;;10.40;65.20;;;;;;5081066;28;20451;-86
2022/11/12 07:13:02;;;;;;;27.70;17.77;;;10.60;64.60;;;;;;5080052;28;20481;-88
2022/11/12 07:15:47;;;;;;;17.30;11.87;;;10.90;63.90;;;;;;5104469;28;20455;-90
2022/11/12 07:18:35;;;;;;;11.67;8.53;;;10.90;63.10;;;;;;5099736;28;20477;-91
2022/11/12 07:21:21;;;;;;;10.70;6.20;;;11.00;63.40;;;;;;5099922;28;20454;-91
2022/11/12 07:24:08;;;;;;;8.90;7.20;;;11.20;62.20;;;;;;5096432;28;20498;-87
2022/11/12 07:26:54;;;;;;;12.03;7.53;;;11.10;62.70;;;;;;5097831;28;20451;-88
2022/11/12 07:29:40;;;;;;;16.63;9.80;;;11.20;62.50;;;;;;5099665;28;20455;-89
2022/11/12 07:32:25;;;;;;;16.53;12.80;;;11.20;62.40;;;;;;5096190;28;20529;-88
2022/11/12 07:35:11;;;;;;;21.17;13.10;;;11.30;62.20;;;;;;5096942;28;20537;-88
2022/11/12 07:37:57;;;;;;;26.60;16.83;;;11.20;62.40;;;;;;5094859;28;20464;-87
2022/11/12 07:40:44;;;;;;;18.57;12.10;;;11.30;62.80;;;;;;5099093;28;20451;-90
2022/11/12 07:43:29;;;;;;;15.20;10.90;;;11.50;62.30;;;;;;5097641;28;20563;-89
2022/11/12 07:46:17;;;;;;;24.70;18.70;;;11.50;61.70;;;;;;5083567;28;20553;-89
2022/11/12 07:49:02;;;;;;;13.13;7.40;;;11.10;62.40;;;;;;5094577;28;20455;-88
2022/11/12 07:51:48;;;;;;;11.47;7.90;;;11.10;62.80;;;;;;5083378;28;20446;-89
2022/11/12 07:54:34;;;;;;;12.57;9.43;;;10.70;63.60;;;;;;5094578;28;20576;-87
2022/11/12 07:57:21;;;;;;;13.83;10.20;;;10.60;64.30;;;;;;5099496;28;20460;-86
2022/11/12 08:00:08;;;;;;;13.27;10.77;;;10.70;64.00;;;;;;5092887;28;20451;-90
2022/11/12 08:02:54;;;;;;;18.70;11.70;;;11.10;63.90;;;;;;5092352;28;20462;-87
2022/11/12 08:05:39;;;;;;;16.30;12.20;;;11.30;62.80;;;;;;5096044;28;20451;-89
2022/11/12 08:08:25;;;;;;;14.17;10.27;;;11.50;62.00;;;;;;5082518;28;20461;-89
2022/11/12 08:11:11;;;;;;;13.87;10.97;;;11.60;61.60;;;;;;5093658;28;20495;-89
2022/11/12 08:13:58;;;;;;;17.53;10.50;;;11.50;61.50;;;;;;5099202;28;20547;-88
2022/11/12 08:16:45;;;;;;;13.30;8.03;;;11.50;61.30;;;;;;5094511;28;20489;-86
2022/11/12 08:19:31;;;;;;;14.60;9.80;;;11.30;61.40;;;;;;5079284;28;20806;-90
2022/11/12 08:22:17;;;;;;;36.73;25.47;;;11.20;62.10;;;;;;5096056;28;20543;-89
2022/11/12 08:25:02;;;;;;;30.53;13.37;;;11.30;62.30;;;;;;5092275;28;20485;-90
2022/11/12 08:27:48;;;;;;;23.30;12.47;;;11.00;62.00;;;;;;5083893;28;20436;-88
2022/11/12 08:30:36;;;;;;;22.63;9.80;;;10.90;62.60;;;;;;5094790;28;20448;-90
2022/11/12 08:33:22;;;;;;;14.50;10.27;;;10.90;62.90;;;;;;5096297;27;21029;-90
2022/11/12 08:36:09;;;;;;;12.17;7.63;;;10.80;63.80;;;;;;5096278;27;20477;-90
2022/11/12 08:38:55;;;;;;;16.00;14.27;;;10.90;63.60;;;;;;5080404;28;20462;-88
2022/11/12 08:41:40;;;;;;;12.10;9.10;;;10.80;63.40;;;;;;5080915;28;20458;-90
2022/11/12 08:44:26;;;;;;;10.73;7.60;;;10.80;63.60;;;;;;5094755;28;20471;-90
2022/11/12 08:47:13;;;;;;;9.83;8.83;;;11.00;63.50;;;;;;5068586;28;20975;-89
2022/11/12 08:49:58;;;;;;;9.20;7.37;;;11.10;62.80;;;;;;5098416;28;20958;-89
2022/11/12 08:52:44;;;;;;;12.00;7.67;;;11.00;63.10;;;;;;5084208;28;20564;-90
2022/11/12 08:55:31;;;;;;;15.03;8.90;;;10.80;64.00;;;;;;5097426;28;20454;-89
2022/11/12 08:58:16;;;;;;;14.10;8.63;;;11.00;63.50;;;;;;5079979;28;20524;-90
2022/11/12 09:01:04;;;;;;;15.00;8.90;;;11.30;63.20;;;;;;5080097;28;20778;-92
2022/11/12 09:03:51;;;;;;;12.40;8.43;;;11.40;62.80;;;;;;5076919;28;20463;-86
2022/11/12 09:06:37;;;;;;;13.37;8.07;;;11.60;62.70;;;;;;5063601;27;20473;-90
2022/11/12 09:09:23;;;;;;;11.93;8.40;;;11.60;62.10;;;;;;5090891;28;20487;-89
2022/11/12 09:12:11;;;;;;;12.43;8.47;;;11.20;62.50;;;;;;5084273;28;20443;-89
2022/11/12 09:14:57;;;;;;;10.80;7.63;;;11.20;63.20;;;;;;5094287;28;20609;-89
2022/11/12 09:17:43;;;;;;;11.07;7.57;;;11.20;63.50;;;;;;5095905;28;20448;-91
2022/11/12 09:20:31;;;;;;;11.07;7.67;;;11.40;63.10;;;;;;5068181;28;20443;-89
2022/11/12 09:23:17;;;;;;;11.23;8.17;;;11.40;62.70;;;;;;5104831;28;20567;-89
2022/11/12 09:26:03;;;;;;;11.30;8.63;;;11.50;63.00;;;;;;5108713;28;20503;-88
2022/11/12 09:28:51;;;;;;;11.20;7.93;;;11.50;62.90;;;;;;5074419;28;20527;-88
2022/11/12 09:31:36;;;;;;;12.90;8.93;;;11.30;63.00;;;;;;5074252;28;20444;-90
2022/11/12 09:34:22;;;;;;;10.53;7.93;;;11.40;63.20;;;;;;5060749;28;20459;-88
2022/11/12 09:37:09;;;;;;;11.60;8.17;;;11.60;62.80;;;;;;5063329;28;20451;-89
2022/11/12 09:39:55;;;;;;;11.70;8.80;;;11.40;62.90;;;;;;5095545;28;20443;-88
2022/11/12 09:42:43;;;;;;;11.27;7.80;;;11.20;63.20;;;;;;5060250;28;20446;-89
2022/11/12 09:45:31;;;;;;;13.27;9.10;;;11.10;63.80;;;;;;5078037;28;21220;-87
2022/11/12 09:48:22;;;;;;;7.93;6.03;;;11.40;63.90;;;;;;5078755;28;20444;-89
2022/11/12 09:51:16;;;;;;;10.67;7.80;;;11.20;64.00;;;;;;5097904;28;20451;-89
2022/11/12 09:54:13;;;;;;;11.20;7.43;;;11.30;64.30;;;;;;5079371;28;20474;-87
2022/11/12 09:57:01;;;;;;;10.30;7.90;;;11.60;63.40;;;;;;5065874;28;20817;-89
2022/11/12 09:59:47;;;;;;;13.57;10.00;;;11.40;63.30;;;;;;5082132;28;20458;-88
2022/11/12 10:02:40;;;;;;;11.80;8.37;;;11.50;63.10;;;;;;5064276;28;20470;-89
2022/11/12 10:05:32;;;;;;;14.07;8.23;;;11.70;63.50;;;;;;5078091;28;20966;-89
2022/11/12 10:08:32;;;;;;;16.47;7.90;;;11.60;63.70;;;;;;5080599;28;20518;-89
2022/11/12 10:18:37;;;;;;;13.37;8.70;;;11.20;64.30;;;;;;5084167;28;20548;-89
2022/11/12 10:21:32;;;;;;;11.27;8.17;;;11.20;65.00;;;;;;5091300;28;20455;-89
2022/11/12 10:24:21;;;;;;;11.93;8.93;;;11.10;65.10;;;;;;5082746;28;20490;-90
2022/11/12 10:27:15;;;;;;;11.80;8.63;;;11.50;65.00;;;;;;5092993;28;20473;-89
2022/11/12 10:30:04;;;;;;;14.93;9.60;;;11.70;63.90;;;;;;5087887;28;20471;-89
2022/11/12 10:32:52;;;;;;;31.53;16.30;;;11.90;63.60;;;;;;5076748;28;20462;-88
2022/11/12 10:35:37;;;;;;;15.20;10.27;;;11.80;63.30;;;;;;5093019;28;20440;-89
2022/11/12 10:38:27;;;;;;;14.90;11.10;;;11.70;64.00;;;;;;5076997;28;20450;-89
2022/11/12 10:41:21;;;;;;;14.13;9.83;;;11.70;65.00;;;;;;5095155;28;20446;-88
2022/11/12 10:44:14;;;;;;;11.07;8.43;;;11.90;64.10;;;;;;5101325;28;20481;-89
2022/11/12 10:47:23;;;;;;;13.70;10.10;;;11.50;63.90;;;;;;5076367;28;21123;-90
2022/11/12 10:50:19;;;;;;;24.10;16.80;;;11.50;64.70;;;;;;5095748;28;20445;-89
2022/11/12 10:53:06;;;;;;;13.30;10.57;;;11.70;64.70;;;;;;5096913;28;20474;-91
2022/11/12 10:55:57;;;;;;;14.03;10.37;;;11.90;64.10;;;;;;5099105;28;20994;-89
2022/11/12 10:58:42;;;;;;;14.50;9.37;;;11.80;64.30;;;;;;5086224;28;20458;-90
2022/11/12 11:01:32;;;;;;;12.50;8.83;;;11.90;64.30;;;;;;5088378;28;21145;-90
2022/11/12 11:04:28;;;;;;;13.00;9.60;;;12.10;64.30;;;;;;5099561;28;20857;-90
2022/11/12 11:07:22;;;;;;;15.50;9.07;;;12.20;63.70;;;;;;5096955;28;20455;-90
2022/11/12 11:10:24;;;;;;;12.03;8.57;;;12.40;63.50;;;;;;5093756;28;20494;-90
2022/11/12 11:13:20;;;;;;;19.10;9.77;;;12.10;63.50;;;;;;5058899;28;21087;-89
2022/11/12 11:16:08;;;;;;;14.60;10.93;;;12.30;64.30;;;;;;5083771;28;20431;-89
2022/11/12 11:18:58;;;;;;;16.73;10.10;;;12.30;63.10;;;;;;5097048;28;20462;-88
2022/11/12 11:22:01;;;;;;;15.73;9.63;;;12.30;63.40;;;;;;5085028;28;20528;-91
2022/11/12 11:24:56;;;;;;;15.43;9.67;;;12.50;63.60;;;;;;5098591;28;20490;-90
2022/11/12 11:27:55;;;;;;;13.93;10.20;;;12.40;63.20;;;;;;5102852;28;20502;-90
2022/11/12 11:30:49;;;;;;;13.50;10.20;;;12.50;63.30;;;;;;5101999;28;20479;-90
2022/11/12 11:33:45;;;;;;;17.20;9.67;;;12.70;62.60;;;;;;5102786;28;20495;-89
2022/11/12 11:36:42;;;;;;;15.60;10.93;;;12.60;62.60;;;;;;5102607;28;20452;-89
2022/11/12 11:39:38;;;;;;;12.20;9.03;;;12.60;62.90;;;;;;5097855;28;20512;-89
2022/11/12 11:42:55;;;;;;;14.20;10.13;;;12.50;63.10;;;;;;5086208;28;20582;-89
2022/11/12 11:45:56;;;;;;;16.00;10.07;;;12.50;63.20;;;;;;5099966;28;20447;-89
2022/11/12 11:48:57;;;;;;;12.13;9.27;;;12.50;63.30;;;;;;5079420;28;21215;-89
2022/11/12 11:51:53;;;;;;;16.13;11.37;;;12.50;63.30;;;;;;5099097;28;20435;-89
2022/11/12 11:54:54;;;;;;;14.80;9.90;;;12.70;63.30;;;;;;5080030;28;20446;-90
2022/11/12 11:57:50;;;;;;;14.63;11.43;;;12.50;63.30;;;;;;5087525;28;20818;-89
2022/11/12 12:00:46;;;;;;;15.23;11.07;;;12.50;63.80;;;;;;5101063;28;20448;-90
2022/11/12 12:03:44;;;;;;;12.73;10.20;;;12.50;63.50;;;;;;5078380;28;20482;-89
2022/11/12 12:06:35;;;;;;;16.20;10.70;;;12.60;63.80;;;;;;5078011;28;20592;-88
2022/11/12 12:09:33;;;;;;;14.43;10.00;;;12.40;64.20;;;;;;5103684;28;20516;-90
2022/11/12 12:12:31;;;;;;;14.60;10.53;;;12.50;63.90;;;;;;5084959;28;20476;-89
2022/11/12 12:15:45;;;;;;;14.47;10.00;;;12.50;63.90;;;;;;5089662;28;20446;-90
2022/11/12 12:18:40;;;;;;;13.30;9.60;;;12.30;64.70;;;;;;5086856;28;20914;-90
2022/11/12 12:21:30;;;;;;;12.13;9.67;;;12.60;64.30;;;;;;5096270;28;20459;-89
2022/11/12 12:24:20;;;;;;;19.53;10.60;;;12.70;63.90;;;;;;5093031;28;20458;-90
2022/11/12 12:27:12;;;;;;;18.90;11.67;;;12.60;63.30;;;;;;5094819;28;20460;-89
2022/11/12 12:30:01;;;;;;;23.10;13.70;;;12.70;63.90;;;;;;5084780;28;20431;-91
2022/11/12 12:32:55;;;;;;;14.13;10.60;;;12.70;63.60;;;;;;5085574;28;20458;-91
2022/11/12 12:35:51;;;;;;;20.20;10.20;;;12.60;63.80;;;;;;5095946;28;20440;-89
2022/11/12 12:38:44;;;;;;;23.03;11.20;;;12.70;64.20;;;;;;5097696;28;20979;-89
2022/11/12 12:41:44;;;;;;;15.40;10.40;;;12.70;64.00;;;;;;5094399;28;20446;-89
2022/11/12 12:47:46;;;;;;;15.60;11.40;;;12.60;64.70;;;;;;5086253;28;21027;-90
2022/11/12 12:50:32;;;;;;;16.03;10.33;;;12.80;64.50;;;;;;5096195;28;20454;-89
2022/11/12 12:53:31;;;;;;;14.67;11.27;;;12.80;63.80;;;;;;5092502;28;20576;-91
2022/11/12 12:56:47;;;;;;;17.37;10.17;;;12.50;64.20;;;;;;5080515;28;20442;-90
2022/11/12 12:59:34;;;;;;;15.27;11.37;;;12.40;65.30;;;;;;5095001;28;20558;-91
2022/11/12 13:02:22;;;;;;;16.40;10.90;;;12.40;65.40;;;;;;5095806;28;20475;-92
2022/11/12 13:05:23;;;;;;;15.50;10.83;;;12.60;64.70;;;;;;5077826;28;20444;-91
2022/11/12 13:08:12;;;;;;;18.67;12.47;;;12.50;64.90;;;;;;5094043;28;20531;-90
2022/11/12 13:10:58;;;;;;;18.23;11.53;;;12.30;65.30;;;;;;5094164;28;20535;-90
2022/11/12 13:13:44;;;;;;;17.23;11.93;;;12.50;64.90;;;;;;5092034;28;20851;-91
2022/11/12 13:16:59;;;;;;;15.70;11.63;;;12.80;64.20;;;;;;5096665;28;20444;-89
2022/11/12 13:19:47;;;;;;;18.37;12.10;;;12.80;64.00;;;;;;5094430;28;20459;-91
2022/11/12 13:22:50;;;;;;;19.90;12.93;;;12.80;64.00;;;;;;5077376;28;20442;-90
2022/11/12 13:25:37;;;;;;;16.80;12.10;;;12.80;64.10;;;;;;5091253;28;20454;-90
2022/11/12 13:28:22;;;;;;;14.37;10.90;;;12.80;64.00;;;;;;5093510;28;20434;-89
2022/11/12 13:31:25;;;;;;;18.00;12.80;;;13.00;64.20;;;;;;5078677;28;20477;-89
2022/11/12 13:34:21;;;;;;;18.37;12.63;;;12.80;63.80;;;;;;5075238;28;21020;-90
2022/11/12 13:37:19;;;;;;;19.77;12.43;;;12.60;64.90;;;;;;5093941;28;20521;-90
2022/11/12 13:40:12;;;;;;;17.27;12.67;;;12.60;64.50;;;;;;5075411;28;20937;-91
2022/11/12 13:43:04;;;;;;;23.00;12.53;;;12.60;64.30;;;;;;5084065;28;20463;-90
2022/11/12 13:45:53;;;;;;;18.57;13.73;;;12.60;64.90;;;;;;5090475;28;20528;-89
2022/11/12 13:48:42;;;;;;;18.97;13.53;;;12.60;65.00;;;;;;5100283;28;20447;-91
2022/11/12 13:51:37;;;;;;;24.80;14.70;;;12.60;64.60;;;;;;5094197;28;21011;-89
2022/11/12 13:54:30;;;;;;;27.30;14.97;;;12.60;64.80;;;;;;5093560;28;20566;-90
2022/11/12 13:57:26;;;;;;;26.33;16.47;;;12.80;64.60;;;;;;5088274;28;21648;-91
2022/11/12 14:00:27;;;;;;;31.60;20.20;;;13.10;63.90;;;;;;5098392;28;20489;-91
2022/11/12 14:03:17;;;;;;;26.37;16.37;;;13.00;64.00;;;;;;5082002;28;20455;-90
2022/11/12 14:06:13;;;;;;;27.00;16.37;;;13.10;63.90;;;;;;5098139;28;20486;-91
2022/11/12 14:09:34;;;;;;;32.97;19.87;;;13.10;64.00;;;;;;5099184;28;20522;-90
2022/11/12 14:12:37;;;;;;;23.00;15.60;;;13.20;63.30;;;;;;5092325;28;20538;-90
2022/11/12 14:15:33;;;;;;;23.77;14.63;;;13.00;63.30;;;;;;5087657;28;20443;-90
2022/11/12 14:18:26;;;;;;;25.60;16.30;;;12.90;64.20;;;;;;5098578;28;20486;-90
2022/11/12 14:21:16;;;;;;;79.83;35.93;;;13.00;64.30;;;;;;5081698;28;20827;-90
2022/11/12 14:24:04;;;;;;;24.60;17.27;;;13.00;64.10;;;;;;5101747;28;20467;-90
2022/11/12 14:26:51;;;;;;;23.37;14.77;;;13.00;64.00;;;;;;5084813;28;20446;-90
2022/11/12 14:29:37;;;;;;;23.90;15.00;;;13.10;63.20;;;;;;5093081;28;20678;-89
2022/11/12 14:32:22;;;;;;;22.77;14.33;;;13.00;63.70;;;;;;5098574;28;20533;-90
2022/11/12 14:35:27;;;;;;;28.47;19.23;;;12.80;64.40;;;;;;5088646;28;20439;-89
2022/11/12 14:38:17;;;;;;;30.73;20.07;;;12.40;65.60;;;;;;5097110;28;20499;-90
2022/11/12 14:41:09;;;;;;;26.20;15.83;;;12.50;66.10;;;;;;5088527;28;20682;-89
2022/11/12 14:43:58;;;;;;;25.73;16.23;;;12.60;65.60;;;;;;5091915;28;20459;-89
2022/11/12 14:46:46;;;;;;;26.20;16.17;;;12.50;66.30;;;;;;5102475;28;20998;-90
2022/11/12 14:49:38;;;;;;;26.60;16.23;;;12.60;66.10;;;;;;5101537;28;20487;-89
2022/11/12 14:52:28;;;;;;;26.87;18.50;;;12.70;66.30;;;;;;5106647;28;21145;-89
2022/11/12 14:55:17;;;;;;;28.67;15.90;;;12.90;65.30;;;;;;5099939;28;20550;-91
2022/11/12 14:58:03;;;;;;;25.17;18.13;;;13.00;64.90;;;;;;5092707;28;20503;-89